Time;durP1;ratioP1;P1;durP2;ratioP2;P2;SDS_P1;SDS_P2;PMS_P1;PMS_P2;Temp;Humidity;BMP_temperature;BMP_pressure;BME280_temperature;BME280_humidity;BME280_pressure;Samples;Min_cycle;Max_cycle;Signal;HPM_P1;HPM_P2
2023/06/26 00:00:36;;;;;;;5.70;5.10;;;;;25.60;100261.00;;;;2066960;28;20236;-58
2023/06/26 00:01:39;;;;;;;6.63;6.13;;;;;25.60;100221.00;;;;2078719;28;20776;-58
2023/06/26 00:02:40;;;;;;;6.80;6.20;;;;;25.60;100221.00;;;;2082351;28;20826;-57
2023/06/26 00:03:40;;;;;;;6.43;5.93;;;;;25.60;100216.00;;;;2075329;28;20456;-58
2023/06/26 00:04:42;;;;;;;6.53;6.03;;;;;25.60;100216.00;;;;2074829;28;20233;-57
2023/06/26 00:05:42;;;;;;;6.70;5.40;;;;;25.60;100222.00;;;;2066154;28;20225;-58
2023/06/26 00:06:43;;;;;;;6.43;5.87;;;;;25.60;100224.00;;;;2068736;28;21128;-58
2023/06/26 00:07:43;;;;;;;6.40;5.90;;;;;25.60;100220.00;;;;2062028;28;20214;-57
2023/06/26 00:08:43;;;;;;;7.53;5.90;;;;;25.60;100220.00;;;;2068086;28;20268;-59
2023/06/26 00:09:44;;;;;;;7.00;6.30;;;;;25.60;100214.00;;;;2081348;28;20213;-58
2023/06/26 00:10:44;;;;;;;7.13;5.43;;;;;25.60;100221.00;;;;2074434;28;20216;-58
2023/06/26 00:11:44;;;;;;;6.63;6.13;;;;;25.60;100220.00;;;;2079815;28;20283;-58
2023/06/26 00:12:45;;;;;;;6.23;5.67;;;;;25.60;100208.00;;;;2084777;28;22363;-58
2023/06/26 00:13:45;;;;;;;6.57;6.00;;;;;25.60;100220.00;;;;2082471;28;20642;-58
2023/06/26 00:14:45;;;;;;;6.97;6.37;;;;;25.60;100214.00;;;;2081144;28;20241;-58
2023/06/26 00:15:45;;;;;;;6.60;6.10;;;;;25.60;100209.00;;;;2074766;28;20278;-57
2023/06/26 00:16:49;;;;;;;6.50;6.00;;;;;25.60;100221.00;;;;2082100;28;20267;-58
2023/06/26 00:17:50;;;;;;;7.50;6.80;;;;;25.60;100223.00;;;;2084580;28;20212;-58
2023/06/26 00:18:50;;;;;;;6.50;5.90;;;;;25.60;100216.00;;;;2084124;28;20521;-57
2023/06/26 00:19:51;;;;;;;6.10;5.60;;;;;25.60;100212.00;;;;2079730;28;20537;-58
2023/06/26 00:20:51;;;;;;;6.50;5.90;;;;;25.60;100210.00;;;;2064950;28;20688;-58
2023/06/26 00:21:52;;;;;;;5.60;5.10;;;;;25.60;100218.00;;;;2074332;28;20213;-57
2023/06/26 00:22:53;;;;;;;6.90;6.30;;;;;25.60;100233.00;;;;2069054;28;20218;-58
2023/06/26 00:23:53;;;;;;;6.70;6.10;;;;;25.60;100209.00;;;;2074058;28;20607;-57
2023/06/26 00:24:54;;;;;;;8.20;6.10;;;;;25.60;100221.00;;;;2078018;28;20487;-58
2023/06/26 00:25:54;;;;;;;6.90;6.30;;;;;25.60;100214.00;;;;2072207;28;20221;-57
2023/06/26 00:26:54;;;;;;;6.97;6.27;;;;;25.60;100205.00;;;;2084699;28;20220;-58
2023/06/26 00:27:55;;;;;;;7.13;6.43;;;;;25.60;100221.00;;;;2080148;28;20296;-57
2023/06/26 00:28:55;;;;;;;7.80;6.30;;;;;25.60;100213.00;;;;2083664;28;20723;-58
2023/06/26 00:29:55;;;;;;;6.97;6.30;;;;;25.60;100212.00;;;;2077840;28;20224;-58
2023/06/26 00:30:56;;;;;;;6.70;6.10;;;;;25.60;100217.00;;;;2071854;28;20294;-58
2023/06/26 00:31:56;;;;;;;5.97;5.47;;;;;25.60;100212.00;;;;2085818;28;20288;-58
2023/06/26 00:32:56;;;;;;;5.50;5.00;;;;;25.60;100208.00;;;;2082056;28;20205;-58
2023/06/26 00:33:57;;;;;;;6.80;6.30;;;;;25.60;100211.00;;;;2083966;28;20208;-58
2023/06/26 00:34:57;;;;;;;6.90;6.30;;;;;25.60;100212.00;;;;2086012;28;20246;-58
2023/06/26 00:35:57;;;;;;;6.53;5.93;;;;;25.60;100214.00;;;;2070548;28;20291;-57
2023/06/26 00:36:58;;;;;;;6.23;5.73;;;;;25.60;100211.00;;;;2078533;28;20236;-58
2023/06/26 00:37:58;;;;;;;6.50;5.90;;;;;25.60;100212.00;;;;2083404;28;20208;-57
2023/06/26 00:38:59;;;;;;;6.23;5.73;;;;;25.60;100214.00;;;;2083764;28;20244;-57
2023/06/26 00:39:59;;;;;;;6.40;5.90;;;;;25.30;100212.00;;;;2079263;28;20223;-58
2023/06/26 00:41:00;;;;;;;6.13;5.63;;;;;25.60;100210.00;;;;2068587;28;20293;-58
2023/06/26 00:42:00;;;;;;;6.13;5.63;;;;;25.60;100216.00;;;;2086080;28;20220;-58
2023/06/26 00:43:01;;;;;;;7.60;6.90;;;;;25.60;100215.00;;;;2085903;28;20577;-57
2023/06/26 00:44:01;;;;;;;6.83;6.23;;;;;25.60;100215.00;;;;2072629;28;20639;-57
2023/06/26 00:45:02;;;;;;;6.97;6.37;;;;;25.60;100216.00;;;;2074488;28;20460;-58
2023/06/26 00:46:02;;;;;;;7.10;6.50;;;;;25.60;100219.00;;;;2068834;28;20308;-58
2023/06/26 00:47:03;;;;;;;6.70;6.10;;;;;25.60;100217.00;;;;2076787;28;20263;-59
2023/06/26 00:48:03;;;;;;;6.27;5.77;;;;;25.60;100214.00;;;;2054416;28;20207;-58
2023/06/26 00:49:04;;;;;;;6.87;6.23;;;;;25.60;100216.00;;;;2066316;28;20293;-57
2023/06/26 00:50:05;;;;;;;7.07;6.47;;;;;25.60;100214.00;;;;2085272;28;20205;-58
2023/06/26 00:51:05;;;;;;;6.07;5.57;;;;;25.60;100208.00;;;;2075861;28;20700;-58
2023/06/26 00:52:06;;;;;;;6.23;5.73;;;;;25.60;100216.00;;;;2063864;28;20797;-58
2023/06/26 00:53:06;;;;;;;6.53;6.03;;;;;25.60;100215.00;;;;2060749;28;20632;-57
2023/06/26 00:54:06;;;;;;;6.50;5.90;;;;;25.60;100208.00;;;;2084989;28;20294;-57
2023/06/26 00:55:07;;;;;;;6.90;6.30;;;;;25.60;100211.00;;;;2077449;28;20247;-58
2023/06/26 00:56:07;;;;;;;7.00;6.40;;;;;25.60;100211.00;;;;2067242;28;20287;-58
2023/06/26 00:57:08;;;;;;;5.73;5.33;;;;;25.60;100190.00;;;;2078453;28;20232;-57
2023/06/26 00:58:08;;;;;;;6.70;6.20;;;;;25.40;100212.00;;;;2065852;28;20218;-59
2023/06/26 00:59:08;;;;;;;6.70;6.07;;;;;25.60;100206.00;;;;2073922;28;20251;-58
2023/06/26 01:00:10;;;;;;;7.03;6.33;;;;;25.60;100201.00;;;;2082871;28;20310;-57
2023/06/26 01:01:14;;;;;;;6.77;6.20;;;;;25.60;100196.00;;;;2069220;28;20220;-58
2023/06/26 01:02:17;;;;;;;6.57;6.07;;;;;25.60;100201.00;;;;2071999;28;20457;-57
2023/06/26 01:03:18;;;;;;;6.13;5.63;;;;;25.60;100200.00;;;;2072026;28;20477;-58
2023/06/26 01:04:18;;;;;;;6.73;6.20;;;;;25.60;100206.00;;;;2086397;28;20458;-58
2023/06/26 01:05:20;;;;;;;6.67;6.07;;;;;25.60;100195.00;;;;2076835;28;20714;-57
2023/06/26 01:06:22;;;;;;;6.70;6.20;;;;;25.60;100200.00;;;;2065093;28;20214;-59
2023/06/26 01:07:22;;;;;;;6.47;5.90;;;;;25.60;100198.00;;;;2066103;28;20507;-57
2023/06/26 01:08:23;;;;;;;6.70;6.10;;;;;25.60;100193.00;;;;2075615;28;20977;-58
2023/06/26 01:09:23;;;;;;;7.10;6.50;;;;;25.60;100197.00;;;;2076275;28;20217;-58
2023/06/26 01:10:23;;;;;;;6.40;5.80;;;;;25.60;100202.00;;;;2072606;28;20214;-58
2023/06/26 01:11:24;;;;;;;7.30;6.60;;;;;25.60;100193.00;;;;2067653;28;20205;-58
2023/06/26 01:12:24;;;;;;;7.20;6.50;;;;;25.60;100192.00;;;;2076845;28;20788;-58
2023/06/26 01:13:24;;;;;;;6.20;5.70;;;;;25.60;100192.00;;;;2083405;28;20216;-57
2023/06/26 01:14:25;;;;;;;6.40;5.87;;;;;25.50;100192.00;;;;2084307;28;21071;-58
2023/06/26 01:15:25;;;;;;;7.30;6.70;;;;;25.60;100184.00;;;;2082672;28;20220;-57
2023/06/26 01:16:25;;;;;;;7.07;6.43;;;;;25.50;100189.00;;;;2074237;28;20324;-58
2023/06/26 01:17:32;;;;;;;6.77;6.17;;;;;25.60;100198.00;;;;2077603;28;20209;-58
2023/06/26 01:18:32;;;;;;;6.30;5.80;;;;;25.60;100186.00;;;;2065563;28;20610;-58
2023/06/26 01:19:33;;;;;;;8.07;6.20;;;;;25.60;100186.00;;;;2078133;28;20583;-57
2023/06/26 01:20:37;;;;;;;7.10;6.50;;;;;25.60;100186.00;;;;2064285;28;20225;-58
2023/06/26 01:21:39;;;;;;;6.65;5.95;;;;;25.60;100186.00;;;;2061786;28;20214;-58
2023/06/26 01:22:53;;;;;;;6.10;5.50;;;;;25.50;100178.00;;;;2061383;28;20633;-57
2023/06/26 01:24:04;;;;;;;6.85;6.22;;;;;25.50;100186.00;;;;2068332;28;20445;-58
2023/06/26 01:25:21;;;;;;;6.43;5.83;;;;;25.50;100178.00;;;;2078371;28;20247;-57
2023/06/26 01:26:22;;;;;;;8.20;6.90;;;;;25.60;100177.00;;;;2072416;28;21060;-59
2023/06/26 01:27:22;;;;;;;7.40;6.80;;;;;25.60;100180.00;;;;2071810;28;20444;-59
2023/06/26 01:28:23;;;;;;;6.57;5.97;;;;;25.60;100179.00;;;;2068726;28;20461;-58
2023/06/26 01:29:24;;;;;;;7.13;6.53;;;;;25.60;100187.00;;;;2068487;28;20759;-58
2023/06/26 01:30:24;;;;;;;7.07;6.37;;;;;25.60;100176.00;;;;2060189;28;20485;-57
2023/06/26 01:31:26;;;;;;;6.67;6.07;;;;;25.60;100173.00;;;;2059093;28;20207;-57
2023/06/26 01:32:26;;;;;;;6.47;5.90;;;;;25.50;100168.00;;;;2067022;28;20317;-58
2023/06/26 01:33:26;;;;;;;7.00;6.43;;;;;25.50;100174.00;;;;2063667;28;20469;-57
2023/06/26 01:34:27;;;;;;;6.17;5.67;;;;;25.50;100168.00;;;;2072301;28;20222;-58
2023/06/26 01:35:27;;;;;;;6.53;6.00;;;;;25.50;100173.00;;;;2059390;28;20214;-58
2023/06/26 01:36:27;;;;;;;6.97;6.47;;;;;25.50;100165.00;;;;2050962;28;20238;-57
2023/06/26 01:37:28;;;;;;;5.97;5.53;;;;;25.50;100170.00;;;;2080857;28;20247;-58
2023/06/26 01:38:28;;;;;;;6.63;5.93;;;;;25.50;100168.00;;;;2086341;28;20223;-58
2023/06/26 01:39:29;;;;;;;7.53;6.83;;;;;25.50;100173.00;;;;2083731;28;20206;-57
2023/06/26 01:40:29;;;;;;;6.70;6.10;;;;;25.50;100171.00;;;;2085131;28;20231;-58
2023/06/26 01:41:29;;;;;;;7.23;6.60;;;;;25.50;100163.00;;;;2075557;28;20216;-58
2023/06/26 01:42:30;;;;;;;6.50;6.00;;;;;25.50;100163.00;;;;2070841;28;20689;-58
2023/06/26 01:43:54;;;;;;;7.20;6.60;;;;;25.50;100170.00;;;;2072683;28;20234;-57
2023/06/26 01:44:55;;;;;;;7.40;6.80;;;;;25.50;100166.00;;;;2083338;28;20295;-58
2023/06/26 01:45:59;;;;;;;7.07;6.53;;;;;25.40;100154.00;;;;2061762;28;20473;-58
2023/06/26 01:47:01;;;;;;;7.20;6.60;;;;;25.50;100163.00;;;;2063968;28;20387;-58
2023/06/26 01:48:01;;;;;;;6.50;5.90;;;;;25.50;100156.00;;;;2069751;28;20535;-58
2023/06/26 01:49:32;;;;;;;6.93;6.03;;;;;25.50;100157.00;;;;2082483;28;20506;-57
2023/06/26 01:50:32;;;;;;;6.27;5.77;;;;;25.50;100167.00;;;;2060387;28;20570;-59
2023/06/26 01:51:35;;;;;;;7.30;6.60;;;;;25.50;100156.00;;;;2065938;28;20519;-58
2023/06/26 01:52:40;;;;;;;7.25;6.00;;;;;25.50;100163.00;;;;2068979;28;20275;-57
2023/06/26 01:53:41;;;;;;;6.93;6.33;;;;;25.50;100162.00;;;;2066867;28;20231;-58
2023/06/26 01:55:03;;;;;;;6.55;6.05;;;;;25.50;100161.00;;;;2062962;28;20458;-58
2023/06/26 01:56:07;;;;;;;6.50;5.90;;;;;25.50;100168.00;;;;2054379;28;20222;-57
2023/06/26 01:57:08;;;;;;;6.30;5.70;;;;;25.50;100159.00;;;;2063431;28;20461;-58
2023/06/26 01:58:08;;;;;;;7.10;6.50;;;;;25.50;100159.00;;;;2062195;28;20508;-58
2023/06/26 01:59:08;;;;;;;7.00;6.30;;;;;25.40;100162.00;;;;2062618;28;20235;-58
2023/06/26 02:00:11;;;;;;;6.43;5.83;;;;;25.40;100165.00;;;;2072878;28;20285;-58
2023/06/26 02:01:11;;;;;;;6.90;6.30;;;;;25.40;100166.00;;;;2051660;28;20278;-58
2023/06/26 02:02:11;;;;;;;5.93;5.43;;;;;25.40;100164.00;;;;2054615;28;20448;-57
2023/06/26 02:03:12;;;;;;;7.07;6.47;;;;;25.50;100164.00;;;;2076236;28;20586;-58
2023/06/26 02:04:12;;;;;;;6.37;5.87;;;;;25.50;100167.00;;;;2085269;28;20221;-57
2023/06/26 02:05:13;;;;;;;7.33;6.63;;;;;25.50;100164.00;;;;2084943;28;20230;-56
2023/06/26 02:06:13;;;;;;;6.70;6.10;;;;;25.40;100163.00;;;;2065398;28;20217;-59
2023/06/26 02:07:14;;;;;;;6.43;5.83;;;;;25.40;100162.00;;;;2073776;28;20705;-58
2023/06/26 02:08:15;;;;;;;6.70;6.10;;;;;25.40;100160.00;;;;2084253;28;20211;-58
2023/06/26 02:09:15;;;;;;;6.47;5.87;;;;;25.50;100164.00;;;;2080116;28;20693;-57
2023/06/26 02:10:15;;;;;;;6.50;6.00;;;;;25.40;100168.00;;;;2085663;28;20500;-57
2023/06/26 02:11:16;;;;;;;7.00;6.40;;;;;25.40;100159.00;;;;2074208;28;20210;-57
2023/06/26 02:12:16;;;;;;;7.40;6.70;;;;;25.20;100158.00;;;;2080023;28;20214;-58
2023/06/26 02:13:16;;;;;;;6.83;6.23;;;;;25.40;100166.00;;;;2080893;28;20239;-57
2023/06/26 02:14:17;;;;;;;7.00;6.40;;;;;25.40;100166.00;;;;2082601;28;20213;-58
2023/06/26 02:15:17;;;;;;;7.07;6.47;;;;;25.40;100113.00;;;;2078166;28;20610;-58
2023/06/26 02:16:17;;;;;;;6.80;6.20;;;;;25.40;100165.00;;;;2061102;28;20458;-58
2023/06/26 02:17:18;;;;;;;6.30;5.80;;;;;25.40;100167.00;;;;2074598;28;20206;-57
2023/06/26 02:18:18;;;;;;;7.27;6.67;;;;;25.40;100170.00;;;;2079873;28;20280;-58
2023/06/26 02:19:21;;;;;;;6.77;6.17;;;;;25.40;100166.00;;;;2082584;28;20240;-57
2023/06/26 02:20:21;;;;;;;8.77;7.40;;;;;25.40;100167.00;;;;2077562;28;20236;-58
2023/06/26 02:21:21;;;;;;;6.43;5.90;;;;;25.40;100170.00;;;;2072614;28;20455;-61
2023/06/26 02:22:22;;;;;;;6.77;6.17;;;;;25.40;100171.00;;;;2082753;28;20217;-58
2023/06/26 02:23:22;;;;;;;6.10;5.60;;;;;25.40;100167.00;;;;2079405;28;20228;-57
2023/06/26 02:24:23;;;;;;;6.50;5.90;;;;;25.40;100172.00;;;;2085362;28;20324;-58
2023/06/26 02:25:23;;;;;;;6.20;5.70;;;;;25.40;100166.00;;;;2082930;28;20210;-58
2023/06/26 02:26:24;;;;;;;6.67;6.07;;;;;25.40;100168.00;;;;2070900;28;20278;-57
2023/06/26 02:27:25;;;;;;;6.60;6.00;;;;;25.40;100165.00;;;;2085961;28;20213;-58
2023/06/26 02:28:25;;;;;;;6.23;5.73;;;;;25.40;100166.00;;;;2084891;28;20451;-58
2023/06/26 02:29:25;;;;;;;6.60;6.00;;;;;25.40;100165.00;;;;2084959;28;20205;-58
2023/06/26 02:30:26;;;;;;;6.27;5.67;;;;;25.40;100170.00;;;;2085062;28;20228;-58
2023/06/26 02:31:26;;;;;;;6.60;6.00;;;;;25.40;100171.00;;;;2072011;28;20210;-57
2023/06/26 02:32:26;;;;;;;6.63;6.13;;;;;25.40;100169.00;;;;2080184;28;20259;-57
2023/06/26 02:33:27;;;;;;;6.60;5.80;;;;;25.50;100175.00;;;;2081262;28;20217;-59
2023/06/26 02:34:27;;;;;;;7.17;6.57;;;;;25.50;100179.00;;;;2083058;28;20267;-58
2023/06/26 02:35:27;;;;;;;7.23;6.63;;;;;25.40;100177.00;;;;2083838;28;20232;-57
2023/06/26 02:36:28;;;;;;;8.17;5.90;;;;;25.40;100215.00;;;;2067762;28;20805;-58
2023/06/26 02:37:28;;;;;;;6.30;5.70;;;;;25.40;100182.00;;;;2078253;28;20651;-58
2023/06/26 02:38:28;;;;;;;6.80;6.10;;;;;25.40;100178.00;;;;2081512;28;20215;-58
2023/06/26 02:39:29;;;;;;;6.50;6.00;;;;;25.40;100170.00;;;;2081512;28;20266;-58
2023/06/26 02:40:29;;;;;;;6.53;5.90;;;;;25.40;100175.00;;;;2083066;28;20209;-58
2023/06/26 02:41:30;;;;;;;6.60;6.10;;;;;25.40;100172.00;;;;2075813;28;20241;-58
2023/06/26 02:42:31;;;;;;;6.23;5.73;;;;;25.40;100175.00;;;;2084696;28;20635;-58
2023/06/26 02:43:31;;;;;;;6.43;5.83;;;;;25.40;100173.00;;;;2080969;28;21060;-58
2023/06/26 02:44:32;;;;;;;6.77;6.10;;;;;25.40;100180.00;;;;2084991;28;20471;-58
2023/06/26 02:45:33;;;;;;;7.10;6.40;;;;;25.40;100183.00;;;;2081733;28;20274;-59
2023/06/26 02:46:33;;;;;;;6.17;5.53;;;;;25.40;100175.00;;;;2078349;28;20778;-58
2023/06/26 02:47:33;;;;;;;6.30;5.80;;;;;25.40;100173.00;;;;2083655;28;20713;-58
2023/06/26 02:48:34;;;;;;;7.00;6.40;;;;;25.40;100182.00;;;;2085818;28;20266;-58
2023/06/26 02:49:34;;;;;;;6.43;5.83;;;;;25.40;100182.00;;;;2083310;28;20705;-57
2023/06/26 02:50:34;;;;;;;6.97;6.30;;;;;25.40;100182.00;;;;2070794;28;20281;-57
2023/06/26 02:51:35;;;;;;;6.37;5.77;;;;;25.40;100179.00;;;;2077122;28;20247;-58
2023/06/26 02:52:35;;;;;;;6.17;5.67;;;;;25.40;100216.00;;;;2079226;28;20209;-57
2023/06/26 02:53:35;;;;;;;7.07;6.47;;;;;25.40;100188.00;;;;2078436;28;21466;-58
2023/06/26 02:54:36;;;;;;;6.10;5.50;;;;;25.50;100190.00;;;;2085413;28;20213;-57
2023/06/26 02:55:36;;;;;;;7.20;6.50;;;;;25.40;100189.00;;;;2070313;28;20271;-57
2023/06/26 02:56:37;;;;;;;7.17;6.50;;;;;25.40;100192.00;;;;2081565;28;20294;-58
2023/06/26 02:57:37;;;;;;;6.10;5.63;;;;;25.40;100189.00;;;;2081919;28;20209;-57
2023/06/26 02:58:38;;;;;;;6.10;5.60;;;;;25.40;100186.00;;;;2084371;28;20456;-58
2023/06/26 02:59:39;;;;;;;6.73;6.17;;;;;25.40;100193.00;;;;2085682;28;20209;-58
2023/06/26 03:00:41;;;;;;;6.27;5.77;;;;;25.40;100184.00;;;;2073020;28;20624;-58
2023/06/26 03:01:41;;;;;;;6.80;6.20;;;;;25.40;100194.00;;;;2082264;28;20470;-57
2023/06/26 03:02:42;;;;;;;7.20;6.60;;;;;25.40;100185.00;;;;2082678;28;20811;-57
2023/06/26 03:03:42;;;;;;;7.40;6.40;;;;;25.40;100191.00;;;;2079702;28;21024;-57
2023/06/26 03:04:42;;;;;;;6.50;6.00;;;;;25.40;100193.00;;;;2081371;28;20223;-58
2023/06/26 03:05:43;;;;;;;6.10;5.60;;;;;25.40;100192.00;;;;2075563;28;20242;-58
2023/06/26 03:06:44;;;;;;;6.40;5.80;;;;;25.40;100191.00;;;;2082583;28;20255;-57
2023/06/26 03:07:44;;;;;;;6.40;5.90;;;;;25.40;100197.00;;;;2085466;28;20225;-58
2023/06/26 03:08:44;;;;;;;6.70;6.10;;;;;25.40;100195.00;;;;2084158;28;20582;-58
2023/06/26 03:09:45;;;;;;;6.70;6.10;;;;;25.40;100195.00;;;;2084057;28;20705;-58
2023/06/26 03:10:45;;;;;;;6.83;6.23;;;;;25.40;100201.00;;;;2075205;28;20740;-58
2023/06/26 03:11:45;;;;;;;6.83;6.13;;;;;25.40;100196.00;;;;2076172;28;20245;-58
2023/06/26 03:12:45;;;;;;;6.43;5.83;;;;;25.40;100198.00;;;;2064472;28;20218;-58
2023/06/26 03:13:47;;;;;;;7.00;6.40;;;;;25.40;100197.00;;;;2073022;28;20273;-58
2023/06/26 03:14:47;;;;;;;6.87;6.27;;;;;25.40;100204.00;;;;2078480;28;20235;-58
2023/06/26 03:15:47;;;;;;;6.97;6.33;;;;;25.40;100202.00;;;;2073273;28;20478;-58
2023/06/26 03:16:49;;;;;;;7.10;6.40;;;;;25.40;100205.00;;;;2074757;28;20308;-58
2023/06/26 03:17:49;;;;;;;7.68;7.00;;;;;25.40;100197.00;;;;2070312;28;20580;-58
2023/06/26 03:18:49;;;;;;;6.40;5.80;;;;;25.40;100206.00;;;;2082947;28;20220;-58
2023/06/26 03:19:50;;;;;;;7.70;6.37;;;;;25.40;100210.00;;;;2071032;28;20313;-57
2023/06/26 03:20:50;;;;;;;6.77;6.20;;;;;25.40;100206.00;;;;2057263;28;20230;-57
2023/06/26 03:21:50;;;;;;;6.83;6.23;;;;;25.40;100220.00;;;;2077041;28;20218;-58
2023/06/26 03:22:51;;;;;;;6.60;6.00;;;;;25.40;100233.00;;;;2071701;28;20711;-58
2023/06/26 03:23:51;;;;;;;7.20;6.50;;;;;25.40;100215.00;;;;2074218;28;20756;-57
2023/06/26 03:24:52;;;;;;;6.83;6.23;;;;;25.50;100222.00;;;;2078826;28;20256;-57
2023/06/26 03:25:52;;;;;;;6.43;5.93;;;;;25.50;100216.00;;;;2071660;28;20225;-61
2023/06/26 03:26:53;;;;;;;5.90;5.40;;;;;25.40;100218.00;;;;2083860;28;20592;-58
2023/06/26 03:27:53;;;;;;;6.60;6.00;;;;;25.40;100217.00;;;;2080589;28;20713;-58
2023/06/26 03:28:54;;;;;;;6.57;6.03;;;;;25.40;100217.00;;;;2085433;28;20223;-58
2023/06/26 03:29:54;;;;;;;6.07;5.57;;;;;25.50;100217.00;;;;2077680;28;20700;-58
2023/06/26 03:30:55;;;;;;;6.57;5.97;;;;;25.50;100217.00;;;;2070512;28;20522;-57
2023/06/26 03:31:55;;;;;;;6.27;5.77;;;;;25.50;100218.00;;;;2084075;28;20266;-58
2023/06/26 03:32:56;;;;;;;6.30;5.70;;;;;25.40;100218.00;;;;2080195;28;20222;-58
2023/06/26 03:33:56;;;;;;;7.07;6.40;;;;;25.50;100219.00;;;;2082610;28;20216;-57
2023/06/26 03:34:57;;;;;;;6.73;6.00;;;;;25.50;100220.00;;;;2078457;28;20213;-57
2023/06/26 03:35:57;;;;;;;6.40;5.90;;;;;25.40;100216.00;;;;2075391;28;20567;-59
2023/06/26 03:36:58;;;;;;;6.90;6.30;;;;;25.40;100221.00;;;;2085370;28;20581;-59
2023/06/26 03:37:58;;;;;;;7.20;6.50;;;;;25.40;100222.00;;;;2083493;28;20798;-58
2023/06/26 03:39:00;;;;;;;6.63;6.00;;;;;25.40;100223.00;;;;2082661;28;20223;-58
2023/06/26 03:40:00;;;;;;;6.63;6.03;;;;;25.40;100224.00;;;;2083774;28;20643;-58
2023/06/26 03:41:00;;;;;;;7.03;6.43;;;;;25.40;100224.00;;;;2069404;28;20547;-58
2023/06/26 03:42:01;;;;;;;6.90;6.30;;;;;25.50;100224.00;;;;2078468;28;20711;-58
2023/06/26 03:43:01;;;;;;;6.43;5.93;;;;;25.50;100231.00;;;;2077227;28;20761;-58
2023/06/26 03:44:02;;;;;;;6.20;5.70;;;;;25.50;100231.00;;;;2077469;28;20221;-58
2023/06/26 03:45:03;;;;;;;6.57;6.03;;;;;25.40;100226.00;;;;2084200;28;20225;-57
2023/06/26 03:46:03;;;;;;;7.43;6.73;;;;;25.40;100224.00;;;;2066951;28;20483;-58
2023/06/26 03:47:04;;;;;;;8.33;7.27;;;;;25.50;100230.00;;;;2082246;28;20244;-58
2023/06/26 03:48:04;;;;;;;6.50;6.00;;;;;25.40;100233.00;;;;2085145;28;20685;-58
2023/06/26 03:49:05;;;;;;;7.50;6.20;;;;;25.40;100231.00;;;;2082051;28;20213;-58
2023/06/26 03:50:05;;;;;;;6.37;5.83;;;;;25.40;100235.00;;;;2078046;28;20244;-58
2023/06/26 03:51:07;;;;;;;7.20;6.60;;;;;25.40;100236.00;;;;2074738;28;20225;-58
2023/06/26 03:52:07;;;;;;;6.85;6.25;;;;;25.50;100234.00;;;;2080979;28;20274;-57
2023/06/26 03:53:07;;;;;;;7.60;6.20;;;;;25.50;100228.00;;;;2085183;28;20217;-57
2023/06/26 03:54:08;;;;;;;7.13;6.50;;;;;25.50;100231.00;;;;2082093;28;20220;-58
2023/06/26 03:55:08;;;;;;;7.30;6.70;;;;;25.40;100228.00;;;;2077434;28;20206;-58
2023/06/26 03:56:08;;;;;;;7.00;6.30;;;;;25.40;100228.00;;;;2074204;28;20217;-58
2023/06/26 03:57:09;;;;;;;7.13;6.53;;;;;25.40;100228.00;;;;2080524;28;20210;-58
2023/06/26 03:58:09;;;;;;;7.13;6.43;;;;;25.40;100231.00;;;;2085102;28;20282;-58
2023/06/26 03:59:10;;;;;;;6.43;5.83;;;;;25.50;100233.00;;;;2077776;28;20206;-58
2023/06/26 04:00:12;;;;;;;6.40;5.80;;;;;25.50;100237.00;;;;2082537;28;20218;-57
2023/06/26 04:01:12;;;;;;;6.97;6.37;;;;;25.50;100231.00;;;;2068528;28;20252;-57
2023/06/26 04:02:12;;;;;;;7.73;6.90;;;;;25.50;100232.00;;;;2077766;28;20495;-57
2023/06/26 04:03:13;;;;;;;6.50;5.90;;;;;25.50;100230.00;;;;2077048;28;20233;-58
2023/06/26 04:04:13;;;;;;;6.40;5.80;;;;;25.50;100237.00;;;;2082971;28;20279;-57
2023/06/26 04:05:14;;;;;;;7.33;6.10;;;;;25.50;100245.00;;;;2079674;28;20232;-57
2023/06/26 04:06:14;;;;;;;6.80;6.20;;;;;25.40;100232.00;;;;2067885;28;20221;-58
2023/06/26 04:07:14;;;;;;;6.90;5.60;;;;;25.40;100234.00;;;;2091476;22;20472;-63
2023/06/26 04:08:15;;;;;;;7.70;5.53;;;;;25.40;100235.00;;;;2071095;28;20229;-62
2023/06/26 04:09:15;;;;;;;6.60;6.00;;;;;25.40;100225.00;;;;2077429;28;20225;-62
2023/06/26 04:10:15;;;;;;;6.30;5.80;;;;;25.40;100237.00;;;;2075902;28;20217;-62
2023/06/26 04:11:16;;;;;;;6.83;6.23;;;;;25.50;100238.00;;;;2062997;28;20238;-62
2023/06/26 04:12:16;;;;;;;6.57;5.97;;;;;25.50;100244.00;;;;2077169;28;20584;-62
2023/06/26 04:13:16;;;;;;;7.20;6.50;;;;;25.50;100240.00;;;;2073615;28;20649;-62
2023/06/26 04:14:17;;;;;;;7.30;6.63;;;;;25.50;100235.00;;;;2075279;28;20589;-62
2023/06/26 04:15:17;;;;;;;7.87;7.13;;;;;25.50;100250.00;;;;2069289;28;20694;-62
2023/06/26 04:16:18;;;;;;;6.63;6.13;;;;;25.50;100256.00;;;;2059072;28;20260;-62
2023/06/26 04:17:19;;;;;;;6.20;5.70;;;;;25.50;100253.00;;;;2079517;28;20222;-62
2023/06/26 04:18:22;;;;;;;6.33;5.83;;;;;25.50;100255.00;;;;2081827;28;20819;-62
2023/06/26 04:19:23;;;;;;;6.57;5.93;;;;;25.50;100266.00;;;;2078820;28;20460;-62
2023/06/26 04:20:23;;;;;;;6.40;5.80;;;;;25.50;100257.00;;;;2085394;28;20467;-62
2023/06/26 04:21:24;;;;;;;6.80;6.20;;;;;25.50;100258.00;;;;2057960;28;20690;-62
2023/06/26 04:22:25;;;;;;;7.43;6.73;;;;;25.50;100257.00;;;;2062549;28;20225;-62
2023/06/26 04:23:25;;;;;;;6.20;5.70;;;;;25.50;100251.00;;;;2082727;28;20461;-62
2023/06/26 04:24:26;;;;;;;6.17;5.67;;;;;25.50;100263.00;;;;2076801;28;20480;-62
2023/06/26 04:25:29;;;;;;;5.80;5.30;;;;;25.50;100259.00;;;;2072050;28;20230;-62
2023/06/26 04:26:29;;;;;;;6.83;5.80;;;;;25.50;100257.00;;;;2073042;28;20244;-62
2023/06/26 04:27:30;;;;;;;6.90;6.20;;;;;25.50;100262.00;;;;2080707;28;20978;-62
2023/06/26 04:28:33;;;;;;;6.70;6.00;;;;;25.50;100262.00;;;;2080708;28;20267;-62
2023/06/26 04:29:34;;;;;;;6.27;5.77;;;;;25.50;100255.00;;;;2080805;28;20456;-62
2023/06/26 04:30:34;;;;;;;6.47;5.90;;;;;25.50;100268.00;;;;2070941;28;20980;-62
2023/06/26 04:31:34;;;;;;;6.53;6.03;;;;;25.50;100260.00;;;;2074744;28;20218;-62
2023/06/26 04:32:35;;;;;;;6.80;6.20;;;;;25.50;100265.00;;;;2074272;28;20619;-62
2023/06/26 04:33:36;;;;;;;8.33;5.90;;;;;25.50;100263.00;;;;2079355;28;20562;-62
2023/06/26 04:34:38;;;;;;;5.47;5.00;;;;;25.50;100263.00;;;;2077562;28;20704;-62
2023/06/26 04:35:38;;;;;;;6.50;5.90;;;;;25.50;100263.00;;;;2066433;28;20454;-62
2023/06/26 04:36:39;;;;;;;6.20;5.70;;;;;25.50;100267.00;;;;2087398;28;21064;-62
2023/06/26 04:37:40;;;;;;;6.73;6.03;;;;;25.50;100247.00;;;;2084507;28;20212;-62
2023/06/26 04:38:40;;;;;;;6.00;5.40;;;;;25.50;100269.00;;;;2079865;28;20201;-62
2023/06/26 04:39:40;;;;;;;5.73;5.13;;;;;25.50;100266.00;;;;2079372;28;20276;-62
2023/06/26 04:40:41;;;;;;;5.70;5.20;;;;;25.50;100266.00;;;;2069861;28;20206;-62
2023/06/26 04:41:41;;;;;;;8.13;5.73;;;;;25.50;100265.00;;;;2071154;28;20678;-62
2023/06/26 04:42:41;;;;;;;5.90;5.40;;;;;25.50;100267.00;;;;2073563;28;20227;-62
2023/06/26 04:43:42;;;;;;;6.10;5.60;;;;;25.50;100270.00;;;;2076008;28;20270;-62
2023/06/26 04:44:42;;;;;;;7.77;5.70;;;;;25.50;100235.00;;;;2078207;28;20214;-62
2023/06/26 04:45:43;;;;;;;6.10;5.60;;;;;25.50;100280.00;;;;2072809;28;20255;-62
2023/06/26 04:46:43;;;;;;;6.00;5.40;;;;;25.50;100282.00;;;;2082424;28;20217;-62
2023/06/26 04:47:43;;;;;;;6.23;5.73;;;;;25.50;100264.00;;;;2079361;28;20232;-62
2023/06/26 04:48:44;;;;;;;6.23;5.63;;;;;25.50;100275.00;;;;2078579;28;20250;-62
2023/06/26 04:49:45;;;;;;;5.77;5.27;;;;;25.50;100284.00;;;;2079474;28;20252;-62
2023/06/26 04:50:53;;;;;;;8.48;5.82;;;;;25.50;100277.00;;;;2056629;28;20261;-62
2023/06/26 04:51:54;;;;;;;6.10;5.50;;;;;25.50;100271.00;;;;2078271;28;20648;-62
2023/06/26 04:52:55;;;;;;;5.90;5.40;;;;;25.50;100280.00;;;;2074369;28;20469;-62
2023/06/26 04:53:55;;;;;;;5.60;5.10;;;;;25.50;100286.00;;;;2075770;28;20467;-62
2023/06/26 04:54:56;;;;;;;5.87;5.37;;;;;25.50;100281.00;;;;2072404;28;20721;-62
2023/06/26 04:55:56;;;;;;;5.90;5.30;;;;;25.50;100281.00;;;;2070206;28;20217;-62
2023/06/26 04:56:56;;;;;;;6.33;5.73;;;;;25.50;100280.00;;;;2078063;28;20209;-62
2023/06/26 04:57:57;;;;;;;6.37;5.53;;;;;25.50;100274.00;;;;2080045;28;20283;-62
2023/06/26 04:58:57;;;;;;;6.67;6.03;;;;;25.50;100275.00;;;;2078845;28;20214;-62
2023/06/26 04:59:58;;;;;;;5.70;5.20;;;;;25.50;100279.00;;;;2080206;28;20218;-62
2023/06/26 05:00:58;;;;;;;6.70;5.80;;;;;25.50;100281.00;;;;2070096;28;20785;-62
2023/06/26 05:01:58;;;;;;;5.93;5.33;;;;;25.50;100275.00;;;;2076390;28;20217;-62